sensor_id;sensor_type;location;lat;lon;timestamp;pressure;altitude;pressure_sealevel;temperature;humidity
60267;BME280;46125;61.360;-149.532;2023-08-20T00:01:06;100305.74;;;15.43;50.90
60267;BME280;46125;61.360;-149.532;2023-08-20T00:03:35;100301.15;;;18.60;47.25
60267;BME280;46125;61.360;-149.532;2023-08-20T00:06:06;100302.34;;;17.10;48.27
60267;BME280;46125;61.360;-149.532;2023-08-20T00:08:35;100304.20;;;16.93;50.93
60267;BME280;46125;61.360;-149.532;2023-08-20T00:11:03;100302.49;;;18.07;49.34
60267;BME280;46125;61.360;-149.532;2023-08-20T00:13:32;100301.63;;;18.27;48.45
60267;BME280;46125;61.360;-149.532;2023-08-20T00:16:01;100300.31;;;19.07;45.57
60267;BME280;46125;61.360;-149.532;2023-08-20T00:18:29;100299.63;;;18.76;51.12
60267;BME280;46125;61.360;-149.532;2023-08-20T00:20:58;100299.13;;;18.18;48.18
60267;BME280;46125;61.360;-149.532;2023-08-20T00:23:28;100298.18;;;18.19;49.18
60267;BME280;46125;61.360;-149.532;2023-08-20T00:25:57;100295.10;;;19.60;46.07
60267;BME280;46125;61.360;-149.532;2023-08-20T00:28:25;100297.22;;;18.87;46.58
60267;BME280;46125;61.360;-149.532;2023-08-20T00:30:53;100297.05;;;18.14;45.60
60267;BME280;46125;61.360;-149.532;2023-08-20T00:33:22;100294.75;;;19.17;47.11
60267;BME280;46125;61.360;-149.532;2023-08-20T00:35:50;100292.10;;;20.00;46.05
60267;BME280;46125;61.360;-149.532;2023-08-20T00:38:19;100291.04;;;20.60;44.31
60267;BME280;46125;61.360;-149.532;2023-08-20T00:40:47;100293.70;;;18.98;46.24
60267;BME280;46125;61.360;-149.532;2023-08-20T00:43:16;100290.71;;;18.53;47.11
60267;BME280;46125;61.360;-149.532;2023-08-20T00:45:44;100287.31;;;20.02;43.15
60267;BME280;46125;61.360;-149.532;2023-08-20T00:48:13;100294.10;;;20.40;45.12
60267;BME280;46125;61.360;-149.532;2023-08-20T00:50:41;100293.78;;;17.66;46.39
60267;BME280;46125;61.360;-149.532;2023-08-20T00:53:11;100289.31;;;19.17;44.04
60267;BME280;46125;61.360;-149.532;2023-08-20T00:55:40;100285.42;;;18.07;46.20
60267;BME280;46125;61.360;-149.532;2023-08-20T00:58:09;100283.11;;;17.51;47.42
60267;BME280;46125;61.360;-149.532;2023-08-20T01:00:38;100288.04;;;16.95;51.30
60267;BME280;46125;61.360;-149.532;2023-08-20T01:03:06;100287.64;;;18.11;47.99
60267;BME280;46125;61.360;-149.532;2023-08-20T01:05:42;100285.44;;;18.25;46.43
60267;BME280;46125;61.360;-149.532;2023-08-20T01:08:25;100284.43;;;18.56;46.67
60267;BME280;46125;61.360;-149.532;2023-08-20T01:10:59;100284.42;;;17.97;47.13
60267;BME280;46125;61.360;-149.532;2023-08-20T01:13:29;100280.46;;;18.49;48.27
60267;BME280;46125;61.360;-149.532;2023-08-20T01:15:58;100279.20;;;19.04;46.17
60267;BME280;46125;61.360;-149.532;2023-08-20T01:18:26;100276.24;;;18.11;46.49
60267;BME280;46125;61.360;-149.532;2023-08-20T01:21:00;100273.73;;;18.51;46.51
60267;BME280;46125;61.360;-149.532;2023-08-20T01:23:47;100274.23;;;17.93;48.35
60267;BME280;46125;61.360;-149.532;2023-08-20T01:26:39;100275.03;;;18.71;48.22
60267;BME280;46125;61.360;-149.532;2023-08-20T01:29:10;100274.99;;;18.40;48.47
60267;BME280;46125;61.360;-149.532;2023-08-20T01:31:39;100271.98;;;18.14;49.46
60267;BME280;46125;61.360;-149.532;2023-08-20T01:34:08;100270.71;;;18.59;49.38
60267;BME280;46125;61.360;-149.532;2023-08-20T01:36:37;100276.98;;;17.48;49.99
60267;BME280;46125;61.360;-149.532;2023-08-20T01:39:06;100282.51;;;19.41;50.17
60267;BME280;46125;61.360;-149.532;2023-08-20T01:41:34;100279.97;;;18.78;48.87
60267;BME280;46125;61.360;-149.532;2023-08-20T01:44:03;100280.50;;;18.93;46.19
60267;BME280;46125;61.360;-149.532;2023-08-20T01:46:36;100281.15;;;19.54;47.06
60267;BME280;46125;61.360;-149.532;2023-08-20T01:49:05;100282.69;;;19.44;48.89
60267;BME280;46125;61.360;-149.532;2023-08-20T01:51:33;100283.87;;;18.51;48.76
60267;BME280;46125;61.360;-149.532;2023-08-20T01:54:02;100281.76;;;19.57;52.11
60267;BME280;46125;61.360;-149.532;2023-08-20T01:56:30;100283.78;;;19.49;46.26
60267;BME280;46125;61.360;-149.532;2023-08-20T01:58:58;100284.14;;;17.36;49.79
60267;BME280;46125;61.360;-149.532;2023-08-20T02:01:27;100284.44;;;19.12;45.66
60267;BME280;46125;61.360;-149.532;2023-08-20T02:03:55;100280.77;;;18.40;46.83
60267;BME280;46125;61.360;-149.532;2023-08-20T02:06:24;100278.76;;;19.50;45.79
60267;BME280;46125;61.360;-149.532;2023-08-20T02:08:52;100276.08;;;18.82;45.67
60267;BME280;46125;61.360;-149.532;2023-08-20T02:11:21;100274.73;;;19.70;45.47
60267;BME280;46125;61.360;-149.532;2023-08-20T02:13:50;100271.27;;;19.23;46.88
60267;BME280;46125;61.360;-149.532;2023-08-20T02:16:18;100272.68;;;17.77;47.92
60267;BME280;46125;61.360;-149.532;2023-08-20T02:18:47;100269.68;;;17.84;52.25
60267;BME280;46125;61.360;-149.532;2023-08-20T02:21:15;100270.06;;;18.23;46.56
60267;BME280;46125;61.360;-149.532;2023-08-20T02:23:43;100268.75;;;19.10;47.78
60267;BME280;46125;61.360;-149.532;2023-08-20T02:26:12;100267.58;;;19.22;46.17
60267;BME280;46125;61.360;-149.532;2023-08-20T02:28:40;100261.44;;;17.97;48.46
60267;BME280;46125;61.360;-149.532;2023-08-20T02:31:08;100258.22;;;17.85;45.59
60267;BME280;46125;61.360;-149.532;2023-08-20T02:33:37;100256.05;;;19.67;43.46
60267;BME280;46125;61.360;-149.532;2023-08-20T02:36:06;100254.36;;;20.09;44.38
60267;BME280;46125;61.360;-149.532;2023-08-20T02:38:34;100252.37;;;20.23;44.84
60267;BME280;46125;61.360;-149.532;2023-08-20T02:41:02;100247.90;;;18.69;45.84
60267;BME280;46125;61.360;-149.532;2023-08-20T02:43:30;100252.26;;;18.66;48.08
60267;BME280;46125;61.360;-149.532;2023-08-20T02:45:59;100255.24;;;18.84;51.73
60267;BME280;46125;61.360;-149.532;2023-08-20T02:48:27;100254.80;;;19.44;50.82
60267;BME280;46125;61.360;-149.532;2023-08-20T02:50:56;100254.21;;;19.15;44.09
60267;BME280;46125;61.360;-149.532;2023-08-20T02:53:24;100253.44;;;18.54;49.16
60267;BME280;46125;61.360;-149.532;2023-08-20T02:55:53;100256.44;;;18.45;49.57
60267;BME280;46125;61.360;-149.532;2023-08-20T02:58:21;100254.38;;;18.97;49.59
60267;BME280;46125;61.360;-149.532;2023-08-20T03:00:50;100253.78;;;19.53;46.72
60267;BME280;46125;61.360;-149.532;2023-08-20T03:03:18;100254.31;;;18.88;47.44
60267;BME280;46125;61.360;-149.532;2023-08-20T03:05:47;100255.82;;;19.07;49.70
60267;BME280;46125;61.360;-149.532;2023-08-20T03:08:15;100257.39;;;19.66;48.24
60267;BME280;46125;61.360;-149.532;2023-08-20T03:10:44;100256.22;;;19.05;48.71
60267;BME280;46125;61.360;-149.532;2023-08-20T03:13:13;100259.11;;;19.55;48.39
60267;BME280;46125;61.360;-149.532;2023-08-20T03:15:41;100259.06;;;19.64;48.35
60267;BME280;46125;61.360;-149.532;2023-08-20T03:18:10;100259.32;;;19.72;46.85
60267;BME280;46125;61.360;-149.532;2023-08-20T03:20:38;100262.41;;;19.85;47.69
60267;BME280;46125;61.360;-149.532;2023-08-20T03:23:07;100262.74;;;19.72;47.50
60267;BME280;46125;61.360;-149.532;2023-08-20T03:25:35;100260.76;;;19.04;49.19
60267;BME280;46125;61.360;-149.532;2023-08-20T03:28:04;100260.35;;;17.98;51.41
60267;BME280;46125;61.360;-149.532;2023-08-20T03:30:32;100260.03;;;19.02;49.12
60267;BME280;46125;61.360;-149.532;2023-08-20T03:33:00;100264.74;;;19.68;48.73
60267;BME280;46125;61.360;-149.532;2023-08-20T03:35:29;100260.53;;;19.56;47.87
60267;BME280;46125;61.360;-149.532;2023-08-20T03:37:57;100261.33;;;19.74;48.05
60267;BME280;46125;61.360;-149.532;2023-08-20T03:40:27;100269.33;;;19.24;48.53
60267;BME280;46125;61.360;-149.532;2023-08-20T03:42:56;100264.61;;;19.70;48.68
60267;BME280;46125;61.360;-149.532;2023-08-20T03:45:25;100265.46;;;19.81;48.01
60267;BME280;46125;61.360;-149.532;2023-08-20T03:47:54;100271.21;;;19.91;46.76
60267;BME280;46125;61.360;-149.532;2023-08-20T03:50:22;100273.04;;;19.85;47.66
60267;BME280;46125;61.360;-149.532;2023-08-20T03:52:50;100275.36;;;19.76;48.43
60267;BME280;46125;61.360;-149.532;2023-08-20T03:55:19;100275.94;;;18.64;49.28
60267;BME280;46125;61.360;-149.532;2023-08-20T03:57:47;100274.86;;;19.22;49.04
60267;BME280;46125;61.360;-149.532;2023-08-20T04:00:16;100273.07;;;18.89;49.78
60267;BME280;46125;61.360;-149.532;2023-08-20T04:02:44;100274.12;;;17.99;53.24
60267;BME280;46125;61.360;-149.532;2023-08-20T04:05:13;100277.46;;;18.41;51.74
60267;BME280;46125;61.360;-149.532;2023-08-20T04:07:41;100276.59;;;18.36;50.82
60267;BME280;46125;61.360;-149.532;2023-08-20T04:10:10;100275.64;;;18.26;50.05
60267;BME280;46125;61.360;-149.532;2023-08-20T04:12:39;100275.88;;;18.81;49.69
60267;BME280;46125;61.360;-149.532;2023-08-20T04:15:08;100272.00;;;17.81;53.57
60267;BME280;46125;61.360;-149.532;2023-08-20T04:17:37;100275.23;;;18.05;52.86
60267;BME280;46125;61.360;-149.532;2023-08-20T04:20:07;100281.84;;;17.09;56.28
60267;BME280;46125;61.360;-149.532;2023-08-20T04:22:35;100290.26;;;15.83;59.21
60267;BME280;46125;61.360;-149.532;2023-08-20T04:25:04;100290.70;;;15.15;61.04
60267;BME280;46125;61.360;-149.532;2023-08-20T04:27:32;100292.13;;;16.97;56.70
60267;BME280;46125;61.360;-149.532;2023-08-20T04:30:06;100297.76;;;16.91;57.68
60267;BME280;46125;61.360;-149.532;2023-08-20T04:32:35;100295.30;;;17.99;54.94
60267;BME280;46125;61.360;-149.532;2023-08-20T04:35:03;100299.95;;;17.23;56.93
60267;BME280;46125;61.360;-149.532;2023-08-20T04:37:37;100300.47;;;17.45;57.05
60267;BME280;46125;61.360;-149.532;2023-08-20T04:40:07;100299.14;;;17.73;55.17
60267;BME280;46125;61.360;-149.532;2023-08-20T04:42:35;100305.18;;;17.99;53.93
60267;BME280;46125;61.360;-149.532;2023-08-20T04:45:05;100308.14;;;17.92;54.18
60267;BME280;46125;61.360;-149.532;2023-08-20T04:47:33;100316.26;;;18.11;53.63
60267;BME280;46125;61.360;-149.532;2023-08-20T04:50:08;100319.74;;;17.93;54.19
60267;BME280;46125;61.360;-149.532;2023-08-20T04:52:36;100325.16;;;17.92;54.08
60267;BME280;46125;61.360;-149.532;2023-08-20T04:55:05;100328.38;;;17.88;53.94
60267;BME280;46125;61.360;-149.532;2023-08-20T04:57:34;100338.34;;;17.19;55.28
60267;BME280;46125;61.360;-149.532;2023-08-20T05:00:04;100340.09;;;17.06;55.07
60267;BME280;46125;61.360;-149.532;2023-08-20T05:02:32;100341.91;;;17.06;55.89
60267;BME280;46125;61.360;-149.532;2023-08-20T05:05:01;100342.19;;;17.26;55.34
60267;BME280;46125;61.360;-149.532;2023-08-20T05:07:29;100339.87;;;16.88;55.59
60267;BME280;46125;61.360;-149.532;2023-08-20T05:09:58;100341.71;;;17.05;55.57
60267;BME280;46125;61.360;-149.532;2023-08-20T05:12:26;100348.09;;;17.31;54.86
60267;BME280;46125;61.360;-149.532;2023-08-20T05:14:55;100352.14;;;17.36;54.66
60267;BME280;46125;61.360;-149.532;2023-08-20T05:17:24;100355.87;;;17.18;54.48
60267;BME280;46125;61.360;-149.532;2023-08-20T05:19:52;100357.36;;;17.04;54.84
60267;BME280;46125;61.360;-149.532;2023-08-20T05:22:21;100358.38;;;17.13;54.54
60267;BME280;46125;61.360;-149.532;2023-08-20T05:24:49;100361.66;;;17.35;54.31
60267;BME280;46125;61.360;-149.532;2023-08-20T05:27:18;100365.89;;;17.38;54.07
60267;BME280;46125;61.360;-149.532;2023-08-20T05:29:46;100368.02;;;16.75;54.94
60267;BME280;46125;61.360;-149.532;2023-08-20T05:32:15;100368.89;;;17.04;54.54
60267;BME280;46125;61.360;-149.532;2023-08-20T05:34:48;100371.32;;;17.28;54.83
60267;BME280;46125;61.360;-149.532;2023-08-20T05:37:17;100375.96;;;17.09;54.37
60267;BME280;46125;61.360;-149.532;2023-08-20T05:39:45;100377.58;;;17.29;54.84
60267;BME280;46125;61.360;-149.532;2023-08-20T05:42:14;100378.25;;;17.31;54.76
60267;BME280;46125;61.360;-149.532;2023-08-20T05:44:42;100375.22;;;17.18;54.51
60267;BME280;46125;61.360;-149.532;2023-08-20T05:47:11;100370.56;;;17.17;54.27
60267;BME280;46125;61.360;-149.532;2023-08-20T05:49:39;100372.27;;;17.16;53.96
60267;BME280;46125;61.360;-149.532;2023-08-20T05:52:07;100372.47;;;17.33;53.68
60267;BME280;46125;61.360;-149.532;2023-08-20T05:54:36;100375.77;;;17.30;53.38
60267;BME280;46125;61.360;-149.532;2023-08-20T05:57:04;100377.54;;;17.42;53.67
60267;BME280;46125;61.360;-149.532;2023-08-20T05:59:33;100380.59;;;17.34;53.66
60267;BME280;46125;61.360;-149.532;2023-08-20T06:02:02;100379.17;;;17.23;53.66
60267;BME280;46125;61.360;-149.532;2023-08-20T06:04:31;100382.08;;;17.24;53.66
60267;BME280;46125;61.360;-149.532;2023-08-20T06:06:59;100383.34;;;17.06;53.80
60267;BME280;46125;61.360;-149.532;2023-08-20T06:09:27;100385.27;;;17.06;54.03
60267;BME280;46125;61.360;-149.532;2023-08-20T06:11:55;100385.16;;;17.16;53.86
60267;BME280;46125;61.360;-149.532;2023-08-20T06:14:24;100389.86;;;17.25;54.23
60267;BME280;46125;61.360;-149.532;2023-08-20T06:16:53;100389.53;;;17.06;54.70
60267;BME280;46125;61.360;-149.532;2023-08-20T06:19:21;100384.14;;;17.12;54.31
60267;BME280;46125;61.360;-149.532;2023-08-20T06:21:50;100387.10;;;17.36;54.37
60267;BME280;46125;61.360;-149.532;2023-08-20T06:24:18;100394.25;;;17.45;54.19
60267;BME280;46125;61.360;-149.532;2023-08-20T06:26:47;100395.83;;;17.25;54.31
60267;BME280;46125;61.360;-149.532;2023-08-20T06:29:15;100397.85;;;17.43;54.24
60267;BME280;46125;61.360;-149.532;2023-08-20T06:31:43;100398.50;;;17.44;54.34
60267;BME280;46125;61.360;-149.532;2023-08-20T06:34:18;100397.95;;;16.91;54.76
60267;BME280;46125;61.360;-149.532;2023-08-20T06:36:47;100397.62;;;17.02;55.55
60267;BME280;46125;61.360;-149.532;2023-08-20T06:39:15;100399.59;;;16.82;54.90
60267;BME280;46125;61.360;-149.532;2023-08-20T06:41:44;100398.67;;;16.96;55.01
60267;BME280;46125;61.360;-149.532;2023-08-20T06:44:12;100404.34;;;17.20;54.38
60267;BME280;46125;61.360;-149.532;2023-08-20T06:46:41;100406.24;;;17.01;54.17
60267;BME280;46125;61.360;-149.532;2023-08-20T06:49:09;100408.50;;;17.22;54.21
60267;BME280;46125;61.360;-149.532;2023-08-20T06:51:38;100412.79;;;17.01;54.08
60267;BME280;46125;61.360;-149.532;2023-08-20T06:54:06;100416.97;;;17.34;53.78
60267;BME280;46125;61.360;-149.532;2023-08-20T06:56:34;100420.33;;;17.58;53.63
60267;BME280;46125;61.360;-149.532;2023-08-20T06:59:03;100424.02;;;17.20;54.12
60267;BME280;46125;61.360;-149.532;2023-08-20T07:01:31;100424.75;;;17.25;54.39
60267;BME280;46125;61.360;-149.532;2023-08-20T07:04:00;100423.66;;;16.95;55.17
60267;BME280;46125;61.360;-149.532;2023-08-20T07:06:28;100421.92;;;17.00;54.42
60267;BME280;46125;61.360;-149.532;2023-08-20T07:08:56;100419.72;;;17.26;54.53
60267;BME280;46125;61.360;-149.532;2023-08-20T07:11:25;100417.42;;;16.87;55.14
60267;BME280;46125;61.360;-149.532;2023-08-20T07:13:53;100420.04;;;17.14;54.99
60267;BME280;46125;61.360;-149.532;2023-08-20T07:16:22;100423.21;;;17.30;54.49
60267;BME280;46125;61.360;-149.532;2023-08-20T07:18:51;100421.97;;;16.72;54.72
60267;BME280;46125;61.360;-149.532;2023-08-20T07:21:20;100421.71;;;17.19;54.73
60267;BME280;46125;61.360;-149.532;2023-08-20T07:23:48;100422.73;;;17.27;54.55
60267;BME280;46125;61.360;-149.532;2023-08-20T07:26:16;100423.17;;;17.19;54.68
60267;BME280;46125;61.360;-149.532;2023-08-20T07:28:45;100423.67;;;16.52;55.65
60267;BME280;46125;61.360;-149.532;2023-08-20T07:31:13;100419.24;;;16.76;54.83
60267;BME280;46125;61.360;-149.532;2023-08-20T07:33:42;100417.86;;;17.05;54.54
60267;BME280;46125;61.360;-149.532;2023-08-20T07:36:13;100419.48;;;17.02;54.61
60267;BME280;46125;61.360;-149.532;2023-08-20T07:38:42;100419.45;;;16.90;54.72
60267;BME280;46125;61.360;-149.532;2023-08-20T07:41:10;100419.70;;;17.08;54.78
60267;BME280;46125;61.360;-149.532;2023-08-20T07:43:39;100414.74;;;16.43;55.46
60267;BME280;46125;61.360;-149.532;2023-08-20T07:46:09;100410.78;;;16.42;55.02
60267;BME280;46125;61.360;-149.532;2023-08-20T07:48:38;100411.94;;;16.34;54.16
60267;BME280;46125;61.360;-149.532;2023-08-20T07:51:06;100408.62;;;16.49;53.81
60267;BME280;46125;61.360;-149.532;2023-08-20T07:53:34;100407.82;;;16.34;53.85
60267;BME280;46125;61.360;-149.532;2023-08-20T07:56:03;100409.37;;;15.83;55.69
60267;BME280;46125;61.360;-149.532;2023-08-20T07:58:32;100408.17;;;16.15;54.63
60267;BME280;46125;61.360;-149.532;2023-08-20T08:01:00;100408.45;;;16.13;54.07
60267;BME280;46125;61.360;-149.532;2023-08-20T08:03:29;100408.13;;;15.76;53.90
60267;BME280;46125;61.360;-149.532;2023-08-20T08:05:57;100407.62;;;15.82;55.05
60267;BME280;46125;61.360;-149.532;2023-08-20T08:08:26;100411.31;;;15.83;55.10
60267;BME280;46125;61.360;-149.532;2023-08-20T08:10:54;100412.46;;;15.76;55.65
60267;BME280;46125;61.360;-149.532;2023-08-20T08:13:23;100415.87;;;15.91;55.42
60267;BME280;46125;61.360;-149.532;2023-08-20T08:15:52;100416.32;;;15.55;56.01
60267;BME280;46125;61.360;-149.532;2023-08-20T08:18:20;100415.54;;;15.70;55.35
60267;BME280;46125;61.360;-149.532;2023-08-20T08:20:50;100415.59;;;15.37;55.47
60267;BME280;46125;61.360;-149.532;2023-08-20T08:23:18;100414.84;;;15.36;54.95
60267;BME280;46125;61.360;-149.532;2023-08-20T08:25:46;100415.95;;;15.32;54.78
60267;BME280;46125;61.360;-149.532;2023-08-20T08:28:15;100417.41;;;15.28;54.80
60267;BME280;46125;61.360;-149.532;2023-08-20T08:30:43;100419.43;;;15.50;54.85
60267;BME280;46125;61.360;-149.532;2023-08-20T08:33:12;100422.88;;;15.45;54.93
60267;BME280;46125;61.360;-149.532;2023-08-20T08:35:40;100426.20;;;15.17;54.95
60267;BME280;46125;61.360;-149.532;2023-08-20T08:38:09;100432.43;;;15.28;56.00
60267;BME280;46125;61.360;-149.532;2023-08-20T08:40:37;100434.37;;;15.42;55.89
60267;BME280;46125;61.360;-149.532;2023-08-20T08:43:09;100433.12;;;15.30;55.82
60267;BME280;46125;61.360;-149.532;2023-08-20T08:45:38;100433.43;;;15.76;55.58
60267;BME280;46125;61.360;-149.532;2023-08-20T08:48:07;100434.84;;;15.86;55.54
60267;BME280;46125;61.360;-149.532;2023-08-20T08:50:36;100435.33;;;16.01;55.43
60267;BME280;46125;61.360;-149.532;2023-08-20T08:53:05;100438.15;;;15.82;55.38
60267;BME280;46125;61.360;-149.532;2023-08-20T08:55:34;100437.98;;;16.09;55.53
60267;BME280;46125;61.360;-149.532;2023-08-20T08:58:02;100438.43;;;15.94;55.46
60267;BME280;46125;61.360;-149.532;2023-08-20T09:00:31;100441.42;;;16.05;55.40
60267;BME280;46125;61.360;-149.532;2023-08-20T09:02:59;100442.60;;;15.98;55.67
60267;BME280;46125;61.360;-149.532;2023-08-20T09:05:27;100448.51;;;15.80;56.28
60267;BME280;46125;61.360;-149.532;2023-08-20T09:07:57;100450.85;;;15.94;57.02
60267;BME280;46125;61.360;-149.532;2023-08-20T09:10:27;100452.80;;;16.19;56.36
60267;BME280;46125;61.360;-149.532;2023-08-20T09:12:55;100457.10;;;15.88;55.97
60267;BME280;46125;61.360;-149.532;2023-08-20T09:15:32;100459.87;;;16.20;55.72
60267;BME280;46125;61.360;-149.532;2023-08-20T09:18:02;100457.41;;;16.29;55.52
60267;BME280;46125;61.360;-149.532;2023-08-20T09:20:38;100458.03;;;16.38;55.42
60267;BME280;46125;61.360;-149.532;2023-08-20T09:23:12;100459.70;;;16.22;55.39
60267;BME280;46125;61.360;-149.532;2023-08-20T09:25:40;100459.41;;;16.49;55.20
60267;BME280;46125;61.360;-149.532;2023-08-20T09:28:09;100463.31;;;16.31;55.14
60267;BME280;46125;61.360;-149.532;2023-08-20T09:30:38;100465.24;;;16.48;55.42
60267;BME280;46125;61.360;-149.532;2023-08-20T09:33:09;100466.83;;;16.48;55.39
60267;BME280;46125;61.360;-149.532;2023-08-20T09:35:38;100463.99;;;16.52;55.24
60267;BME280;46125;61.360;-149.532;2023-08-20T09:38:06;100460.56;;;16.30;54.97
60267;BME280;46125;61.360;-149.532;2023-08-20T09:40:34;100461.24;;;16.51;54.75
60267;BME280;46125;61.360;-149.532;2023-08-20T09:43:03;100461.02;;;16.41;54.94
60267;BME280;46125;61.360;-149.532;2023-08-20T09:45:33;100461.02;;;16.30;55.00
60267;BME280;46125;61.360;-149.532;2023-08-20T09:48:05;100459.99;;;16.30;55.08
60267;BME280;46125;61.360;-149.532;2023-08-20T09:50:36;100459.38;;;16.29;55.14
60267;BME280;46125;61.360;-149.532;2023-08-20T09:53:15;100461.83;;;16.07;55.12
60267;BME280;46125;61.360;-149.532;2023-08-20T09:55:45;100458.91;;;16.03;55.84
60267;BME280;46125;61.360;-149.532;2023-08-20T09:58:15;100455.22;;;16.09;55.84
60267;BME280;46125;61.360;-149.532;2023-08-20T10:00:43;100455.25;;;16.35;55.92
60267;BME280;46125;61.360;-149.532;2023-08-20T10:03:11;100454.49;;;16.05;55.95
60267;BME280;46125;61.360;-149.532;2023-08-20T10:05:40;100448.11;;;16.16;55.87
60267;BME280;46125;61.360;-149.532;2023-08-20T10:08:09;100449.18;;;16.26;55.65
60267;BME280;46125;61.360;-149.532;2023-08-20T10:10:37;100449.43;;;16.03;55.48
60267;BME280;46125;61.360;-149.532;2023-08-20T10:13:06;100449.53;;;16.29;55.34
60267;BME280;46125;61.360;-149.532;2023-08-20T10:15:35;100448.57;;;15.76;55.38
60267;BME280;46125;61.360;-149.532;2023-08-20T10:18:05;100446.52;;;15.95;55.57
60267;BME280;46125;61.360;-149.532;2023-08-20T10:20:35;100443.93;;;16.11;55.88
60267;BME280;46125;61.360;-149.532;2023-08-20T10:23:04;100443.48;;;16.13;55.92
60267;BME280;46125;61.360;-149.532;2023-08-20T10:25:41;100443.13;;;15.82;56.01
60267;BME280;46125;61.360;-149.532;2023-08-20T10:28:14;100445.02;;;15.83;55.77
60267;BME280;46125;61.360;-149.532;2023-08-20T10:31:18;100446.06;;;15.84;55.93
60267;BME280;46125;61.360;-149.532;2023-08-20T10:33:54;100447.86;;;15.83;56.11
60267;BME280;46125;61.360;-149.532;2023-08-20T10:36:24;100447.46;;;15.73;55.79
60267;BME280;46125;61.360;-149.532;2023-08-20T10:38:53;100445.24;;;16.23;55.52
60267;BME280;46125;61.360;-149.532;2023-08-20T10:41:25;100448.90;;;15.97;55.09
60267;BME280;46125;61.360;-149.532;2023-08-20T10:43:57;100446.65;;;16.14;55.36
60267;BME280;46125;61.360;-149.532;2023-08-20T10:46:28;100448.22;;;15.94;55.21
60267;BME280;46125;61.360;-149.532;2023-08-20T10:48:57;100448.13;;;15.90;55.32
60267;BME280;46125;61.360;-149.532;2023-08-20T10:51:27;100448.77;;;15.89;55.59
60267;BME280;46125;61.360;-149.532;2023-08-20T10:54:06;100450.29;;;15.88;55.67
60267;BME280;46125;61.360;-149.532;2023-08-20T10:56:43;100453.84;;;16.00;55.46
60267;BME280;46125;61.360;-149.532;2023-08-20T10:59:15;100451.35;;;16.31;55.11
60267;BME280;46125;61.360;-149.532;2023-08-20T11:01:44;100446.37;;;15.96;54.96
60267;BME280;46125;61.360;-149.532;2023-08-20T11:04:14;100444.06;;;16.00;55.39
60267;BME280;46125;61.360;-149.532;2023-08-20T11:06:43;100442.03;;;15.71;55.04
60267;BME280;46125;61.360;-149.532;2023-08-20T11:09:12;100445.64;;;15.66;55.03
60267;BME280;46125;61.360;-149.532;2023-08-20T11:11:42;100444.24;;;15.89;55.06
60267;BME280;46125;61.360;-149.532;2023-08-20T11:14:13;100443.30;;;15.79;55.07
60267;BME280;46125;61.360;-149.532;2023-08-20T11:16:43;100441.69;;;15.58;56.15
60267;BME280;46125;61.360;-149.532;2023-08-20T11:19:12;100437.09;;;15.54;56.03
60267;BME280;46125;61.360;-149.532;2023-08-20T11:21:42;100433.42;;;15.43;56.31
60267;BME280;46125;61.360;-149.532;2023-08-20T11:24:11;100430.18;;;15.37;56.20
60267;BME280;46125;61.360;-149.532;2023-08-20T11:26:42;100432.52;;;15.36;56.23
60267;BME280;46125;61.360;-149.532;2023-08-20T11:29:12;100436.41;;;15.31;56.29
60267;BME280;46125;61.360;-149.532;2023-08-20T11:31:41;100437.77;;;15.30;56.22
60267;BME280;46125;61.360;-149.532;2023-08-20T11:34:11;100435.93;;;15.26;56.05
60267;BME280;46125;61.360;-149.532;2023-08-20T11:36:40;100435.49;;;15.20;56.44
60267;BME280;46125;61.360;-149.532;2023-08-20T11:39:09;100435.40;;;15.01;56.17
60267;BME280;46125;61.360;-149.532;2023-08-20T11:41:38;100435.39;;;14.85;56.44
60267;BME280;46125;61.360;-149.532;2023-08-20T11:44:08;100435.88;;;14.81;56.35
60267;BME280;46125;61.360;-149.532;2023-08-20T11:46:43;100431.86;;;14.71;56.40
60267;BME280;46125;61.360;-149.532;2023-08-20T11:49:13;100431.79;;;14.96;56.31
60267;BME280;46125;61.360;-149.532;2023-08-20T11:51:42;100430.75;;;14.93;56.29
60267;BME280;46125;61.360;-149.532;2023-08-20T11:54:12;100429.57;;;14.86;56.29
60267;BME280;46125;61.360;-149.532;2023-08-20T11:56:45;100433.52;;;15.04;56.65
60267;BME280;46125;61.360;-149.532;2023-08-20T11:59:14;100434.77;;;14.78;56.89
60267;BME280;46125;61.360;-149.532;2023-08-20T12:01:49;100430.65;;;14.98;57.28
60267;BME280;46125;61.360;-149.532;2023-08-20T12:04:18;100431.15;;;14.92;57.70
60267;BME280;46125;61.360;-149.532;2023-08-20T12:07:02;100430.87;;;14.74;57.51
60267;BME280;46125;61.360;-149.532;2023-08-20T12:09:31;100434.94;;;14.75;57.67
60267;BME280;46125;61.360;-149.532;2023-08-20T12:11:59;100435.10;;;14.84;57.60
60267;BME280;46125;61.360;-149.532;2023-08-20T12:14:27;100435.85;;;14.76;57.48
60267;BME280;46125;61.360;-149.532;2023-08-20T12:16:56;100439.32;;;14.89;57.33
60267;BME280;46125;61.360;-149.532;2023-08-20T12:19:24;100438.25;;;15.02;57.31
60267;BME280;46125;61.360;-149.532;2023-08-20T12:21:53;100434.78;;;14.93;57.60
60267;BME280;46125;61.360;-149.532;2023-08-20T12:24:21;100431.01;;;14.88;58.70
60267;BME280;46125;61.360;-149.532;2023-08-20T12:26:50;100432.58;;;15.06;58.24
60267;BME280;46125;61.360;-149.532;2023-08-20T12:29:19;100433.05;;;14.67;59.51
60267;BME280;46125;61.360;-149.532;2023-08-20T12:31:47;100431.90;;;14.84;58.63